sensor_id;sensor_type;location;lat;lon;timestamp;pressure;altitude;pressure_sealevel;temperature;humidity
76632;BME280;65526;48.578;-4.520;2023-06-14T00:01:49;101318.59;;;15.41;100.00
76632;BME280;65526;48.578;-4.520;2023-06-14T00:04:16;100642.06;;;10.80;100.00
76632;BME280;65526;48.578;-4.520;2023-06-14T00:06:44;101287.69;;;15.38;100.00
76632;BME280;65526;48.578;-4.520;2023-06-14T00:09:14;101106.59;;;13.76;100.00
76632;BME280;65526;48.578;-4.520;2023-06-14T00:11:44;100602.34;;;10.80;100.00
76632;BME280;65526;48.578;-4.520;2023-06-14T00:14:10;101125.63;;;13.86;100.00
76632;BME280;65526;48.578;-4.520;2023-06-14T00:16:37;101315.25;;;15.36;100.00
76632;BME280;65526;48.578;-4.520;2023-06-14T00:19:04;101341.59;;;15.16;100.00
76632;BME280;65526;48.578;-4.520;2023-06-14T00:21:31;100854.13;;;12.28;100.00
76632;BME280;65526;48.578;-4.520;2023-06-14T00:23:58;100760.00;;;11.75;100.00
76632;BME280;65526;48.578;-4.520;2023-06-14T00:26:25;100583.63;;;10.92;100.00
76632;BME280;65526;48.578;-4.520;2023-06-14T00:28:56;100586.25;;;11.01;100.00
76632;BME280;65526;48.578;-4.520;2023-06-14T00:31:23;100979.72;;;12.95;100.00
76632;BME280;65526;48.578;-4.520;2023-06-14T00:33:49;101240.44;;;14.98;100.00
76632;BME280;65526;48.578;-4.520;2023-06-14T00:36:15;101128.41;;;13.86;100.00
76632;BME280;65526;48.578;-4.520;2023-06-14T00:38:42;100638.63;;;10.99;100.00
76632;BME280;65526;48.578;-4.520;2023-06-14T00:41:09;101311.78;;;15.42;100.00
76632;BME280;65526;48.578;-4.520;2023-06-14T00:43:35;100816.25;;;11.96;100.00
76632;BME280;65526;48.578;-4.520;2023-06-14T00:46:02;100680.59;;;11.22;100.00
76632;BME280;65526;48.578;-4.520;2023-06-14T00:48:29;101300.00;;;15.33;100.00
76632;BME280;65526;48.578;-4.520;2023-06-14T00:50:57;100975.56;;;12.89;100.00
76632;BME280;65526;48.578;-4.520;2023-06-14T00:53:24;100882.47;;;12.30;100.00
76632;BME280;65526;48.578;-4.520;2023-06-14T00:55:51;101324.75;;;15.31;100.00
76632;BME280;65526;48.578;-4.520;2023-06-14T00:58:17;100713.28;;;11.40;100.00
76632;BME280;65526;48.578;-4.520;2023-06-14T01:00:44;101311.22;;;15.33;100.00
76632;BME280;65526;48.578;-4.520;2023-06-14T01:03:11;100860.13;;;12.15;100.00
76632;BME280;65526;48.578;-4.520;2023-06-14T01:05:38;101024.25;;;13.70;100.00
76632;BME280;65526;48.578;-4.520;2023-06-14T01:08:27;100869.53;;;12.38;100.00
76632;BME280;65526;48.578;-4.520;2023-06-14T01:11:22;101284.06;;;15.37;100.00
76632;BME280;65526;48.578;-4.520;2023-06-14T01:13:53;100674.13;;;11.18;100.00
76632;BME280;65526;48.578;-4.520;2023-06-14T01:16:22;100968.66;;;13.14;100.00
76632;BME280;65526;48.578;-4.520;2023-06-14T01:18:51;101315.84;;;15.45;100.00
76632;BME280;65526;48.578;-4.520;2023-06-14T01:21:23;100803.75;;;12.53;100.00
76632;BME280;65526;48.578;-4.520;2023-06-14T01:23:51;101301.03;;;15.44;100.00
76632;BME280;65526;48.578;-4.520;2023-06-14T01:26:24;100959.84;;;13.12;100.00
76632;BME280;65526;48.578;-4.520;2023-06-14T01:28:53;101265.13;;;15.50;100.00
76632;BME280;65526;48.578;-4.520;2023-06-14T01:31:22;101327.84;;;15.45;100.00
76632;BME280;65526;48.578;-4.520;2023-06-14T01:33:51;101314.72;;;15.50;100.00
76632;BME280;65526;48.578;-4.520;2023-06-14T01:36:19;100604.75;;;11.40;100.00
76632;BME280;65526;48.578;-4.520;2023-06-14T01:38:46;100686.50;;;11.64;100.00
76632;BME280;65526;48.578;-4.520;2023-06-14T01:41:17;101282.03;;;15.54;100.00
76632;BME280;65526;48.578;-4.520;2023-06-14T01:43:45;100822.22;;;12.42;100.00
76632;BME280;65526;48.578;-4.520;2023-06-14T01:46:13;101132.13;;;14.60;100.00
76632;BME280;65526;48.578;-4.520;2023-06-14T01:48:42;100626.84;;;11.33;100.00
76632;BME280;65526;48.578;-4.520;2023-06-14T01:51:09;101325.28;;;15.56;100.00
76632;BME280;65526;48.578;-4.520;2023-06-14T01:53:35;100578.06;;;10.92;100.00
76632;BME280;65526;48.578;-4.520;2023-06-14T01:56:02;101257.63;;;15.54;100.00
76632;BME280;65526;48.578;-4.520;2023-06-14T01:58:31;100599.13;;;11.37;100.00
76632;BME280;65526;48.578;-4.520;2023-06-14T02:00:58;100615.09;;;11.24;100.00
76632;BME280;65526;48.578;-4.520;2023-06-14T02:03:28;101292.13;;;15.58;100.00
76632;BME280;65526;48.578;-4.520;2023-06-14T02:05:54;100688.59;;;11.82;100.00
76632;BME280;65526;48.578;-4.520;2023-06-14T02:08:21;100624.78;;;11.46;100.00
76632;BME280;65526;48.578;-4.520;2023-06-14T02:10:49;100852.03;;;12.88;100.00
76632;BME280;65526;48.578;-4.520;2023-06-14T02:13:15;100693.06;;;11.87;100.00
76632;BME280;65526;48.578;-4.520;2023-06-14T02:15:42;100821.91;;;12.78;100.00
76632;BME280;65526;48.578;-4.520;2023-06-14T02:18:10;101241.25;;;15.56;100.00
76632;BME280;65526;48.578;-4.520;2023-06-14T02:20:37;101100.69;;;14.47;100.00
76632;BME280;65526;48.578;-4.520;2023-06-14T02:23:03;101250.91;;;15.59;100.00
76632;BME280;65526;48.578;-4.520;2023-06-14T02:25:31;101198.97;;;14.84;100.00
76632;BME280;65526;48.578;-4.520;2023-06-14T02:27:58;101252.16;;;15.61;100.00
76632;BME280;65526;48.578;-4.520;2023-06-14T02:30:25;100831.81;;;12.76;100.00
76632;BME280;65526;48.578;-4.520;2023-06-14T02:32:51;101257.81;;;15.65;100.00
76632;BME280;65526;48.578;-4.520;2023-06-14T02:35:19;101327.53;;;15.66;100.00
76632;BME280;65526;48.578;-4.520;2023-06-14T02:37:46;100957.16;;;13.66;100.00
76632;BME280;65526;48.578;-4.520;2023-06-14T02:40:13;101225.13;;;15.11;100.00
76632;BME280;65526;48.578;-4.520;2023-06-14T02:42:40;101241.78;;;15.62;100.00
76632;BME280;65526;48.578;-4.520;2023-06-14T02:45:07;101213.63;;;15.16;100.00
76632;BME280;65526;48.578;-4.520;2023-06-14T02:47:34;101293.03;;;15.62;100.00
76632;BME280;65526;48.578;-4.520;2023-06-14T02:50:01;101250.19;;;15.62;100.00
76632;BME280;65526;48.578;-4.520;2023-06-14T02:52:28;100730.72;;;12.63;100.00
76632;BME280;65526;48.578;-4.520;2023-06-14T02:54:55;100625.50;;;11.43;100.00
76632;BME280;65526;48.578;-4.520;2023-06-14T02:57:22;101237.41;;;15.64;100.00
76632;BME280;65526;48.578;-4.520;2023-06-14T02:59:49;101237.78;;;15.63;100.00
76632;BME280;65526;48.578;-4.520;2023-06-14T03:02:16;100621.19;;;11.61;100.00
76632;BME280;65526;48.578;-4.520;2023-06-14T03:04:44;100945.25;;;13.88;100.00
76632;BME280;65526;48.578;-4.520;2023-06-14T03:07:15;100866.31;;;13.18;100.00
76632;BME280;65526;48.578;-4.520;2023-06-14T03:09:48;101030.84;;;13.97;100.00
76632;BME280;65526;48.578;-4.520;2023-06-14T03:12:15;101210.25;;;15.49;100.00
76632;BME280;65526;48.578;-4.520;2023-06-14T03:14:42;101210.81;;;15.55;100.00
76632;BME280;65526;48.578;-4.520;2023-06-14T03:17:09;100846.44;;;13.04;100.00
76632;BME280;65526;48.578;-4.520;2023-06-14T03:19:39;101207.25;;;15.58;100.00
76632;BME280;65526;48.578;-4.520;2023-06-14T03:22:07;101270.88;;;15.57;100.00
76632;BME280;65526;48.578;-4.520;2023-06-14T03:24:35;101308.94;;;15.58;100.00
76632;BME280;65526;48.578;-4.520;2023-06-14T03:27:08;101277.31;;;15.58;100.00
76632;BME280;65526;48.578;-4.520;2023-06-14T03:29:37;100749.19;;;12.52;100.00
76632;BME280;65526;48.578;-4.520;2023-06-14T03:32:04;100970.38;;;13.69;100.00
76632;BME280;65526;48.578;-4.520;2023-06-14T03:34:39;101216.25;;;15.48;100.00
76632;BME280;65526;48.578;-4.520;2023-06-14T03:37:10;100564.00;;;11.32;100.00
76632;BME280;65526;48.578;-4.520;2023-06-14T03:39:37;100747.78;;;12.26;100.00
76632;BME280;65526;48.578;-4.520;2023-06-14T03:42:03;100702.94;;;12.00;100.00
76632;BME280;65526;48.578;-4.520;2023-06-14T03:44:31;100706.28;;;12.06;100.00
76632;BME280;65526;48.578;-4.520;2023-06-14T03:46:58;100734.16;;;12.56;100.00
76632;BME280;65526;48.578;-4.520;2023-06-14T03:49:26;101310.13;;;15.57;100.00
76632;BME280;65526;48.578;-4.520;2023-06-14T03:51:53;100861.38;;;12.96;100.00
76632;BME280;65526;48.578;-4.520;2023-06-14T03:54:22;100626.81;;;11.77;100.00
76632;BME280;65526;48.578;-4.520;2023-06-14T03:56:51;101267.72;;;15.59;100.00
76632;BME280;65526;48.578;-4.520;2023-06-14T03:59:17;101280.56;;;15.60;100.00
76632;BME280;65526;48.578;-4.520;2023-06-14T04:01:44;101265.00;;;15.62;100.00
76632;BME280;65526;48.578;-4.520;2023-06-14T04:04:14;100649.94;;;11.65;100.00
76632;BME280;65526;48.578;-4.520;2023-06-14T04:06:43;101273.31;;;15.59;100.00
76632;BME280;65526;48.578;-4.520;2023-06-14T04:09:11;100961.19;;;13.88;100.00
76632;BME280;65526;48.578;-4.520;2023-06-14T04:11:37;101244.00;;;15.53;100.00
76632;BME280;65526;48.578;-4.520;2023-06-14T04:14:03;100556.19;;;10.91;100.00
76632;BME280;65526;48.578;-4.520;2023-06-14T04:16:30;101246.31;;;15.51;100.00
76632;BME280;65526;48.578;-4.520;2023-06-14T04:18:56;100821.00;;;12.74;100.00
76632;BME280;65526;48.578;-4.520;2023-06-14T04:21:24;101264.75;;;15.52;100.00
76632;BME280;65526;48.578;-4.520;2023-06-14T04:23:53;100595.59;;;11.08;100.00
76632;BME280;65526;48.578;-4.520;2023-06-14T04:26:22;100636.44;;;11.20;100.00
76632;BME280;65526;48.578;-4.520;2023-06-14T04:28:56;100708.50;;;11.69;100.00
76632;BME280;65526;48.578;-4.520;2023-06-14T04:31:29;100394.84;;;9.84;100.00
76632;BME280;65526;48.578;-4.520;2023-06-14T04:34:00;101008.06;;;13.60;100.00
76632;BME280;65526;48.578;-4.520;2023-06-14T04:36:27;100940.31;;;13.12;100.00
76632;BME280;65526;48.578;-4.520;2023-06-14T04:38:54;101319.91;;;15.48;100.00
76632;BME280;65526;48.578;-4.520;2023-06-14T04:41:23;100932.47;;;13.33;100.00
76632;BME280;65526;48.578;-4.520;2023-06-14T04:44:00;100995.75;;;13.80;100.00
76632;BME280;65526;48.578;-4.520;2023-06-14T04:46:31;101302.59;;;15.42;100.00
76632;BME280;65526;48.578;-4.520;2023-06-14T04:49:16;100790.47;;;12.15;100.00
76632;BME280;65526;48.578;-4.520;2023-06-14T04:51:43;101210.97;;;14.85;100.00
76632;BME280;65526;48.578;-4.520;2023-06-14T04:54:10;101171.63;;;14.39;100.00
76632;BME280;65526;48.578;-4.520;2023-06-14T04:56:41;100939.94;;;12.98;100.00
76632;BME280;65526;48.578;-4.520;2023-06-14T04:59:12;101056.03;;;13.81;100.00
76632;BME280;65526;48.578;-4.520;2023-06-14T05:01:41;100651.25;;;11.24;100.00
76632;BME280;65526;48.578;-4.520;2023-06-14T05:04:08;100541.84;;;10.89;100.00
76632;BME280;65526;48.578;-4.520;2023-06-14T05:06:34;101280.25;;;15.45;100.00
76632;BME280;65526;48.578;-4.520;2023-06-14T05:09:02;100419.13;;;9.87;100.00
76632;BME280;65526;48.578;-4.520;2023-06-14T05:11:29;100780.16;;;12.15;100.00
76632;BME280;65526;48.578;-4.520;2023-06-14T05:13:55;101352.78;;;15.51;100.00
76632;BME280;65526;48.578;-4.520;2023-06-14T05:16:24;101304.72;;;15.49;100.00
76632;BME280;65526;48.578;-4.520;2023-06-14T05:18:51;101066.41;;;13.80;100.00
76632;BME280;65526;48.578;-4.520;2023-06-14T05:21:18;101106.91;;;14.06;100.00
76632;BME280;65526;48.578;-4.520;2023-06-14T05:23:45;100656.84;;;11.56;100.00
76632;BME280;65526;48.578;-4.520;2023-06-14T05:26:11;101300.72;;;15.50;100.00
76632;BME280;65526;48.578;-4.520;2023-06-14T05:28:38;101083.66;;;14.02;100.00
76632;BME280;65526;48.578;-4.520;2023-06-14T05:31:04;101300.84;;;15.53;100.00
76632;BME280;65526;48.578;-4.520;2023-06-14T05:33:31;100526.38;;;10.76;100.00
76632;BME280;65526;48.578;-4.520;2023-06-14T05:35:57;101318.47;;;15.54;100.00
76632;BME280;65526;48.578;-4.520;2023-06-14T05:38:23;100883.28;;;12.78;100.00
76632;BME280;65526;48.578;-4.520;2023-06-14T05:40:50;100790.56;;;12.50;100.00
76632;BME280;65526;48.578;-4.520;2023-06-14T05:43:16;100833.28;;;12.38;100.00
76632;BME280;65526;48.578;-4.520;2023-06-14T05:45:43;101331.00;;;15.60;100.00
76632;BME280;65526;48.578;-4.520;2023-06-14T05:48:09;100680.91;;;11.48;100.00
76632;BME280;65526;48.578;-4.520;2023-06-14T05:50:35;101126.69;;;14.32;100.00
76632;BME280;65526;48.578;-4.520;2023-06-14T05:53:02;101000.09;;;13.77;100.00
76632;BME280;65526;48.578;-4.520;2023-06-14T05:55:28;101310.13;;;15.57;100.00
76632;BME280;65526;48.578;-4.520;2023-06-14T05:57:55;100884.09;;;12.63;100.00
76632;BME280;65526;48.578;-4.520;2023-06-14T06:00:21;101313.72;;;15.58;100.00
76632;BME280;65526;48.578;-4.520;2023-06-14T06:02:47;101296.16;;;15.22;100.00
76632;BME280;65526;48.578;-4.520;2023-06-14T06:05:14;101311.38;;;15.60;100.00
76632;BME280;65526;48.578;-4.520;2023-06-14T06:07:43;100919.72;;;12.85;100.00
76632;BME280;65526;48.578;-4.520;2023-06-14T06:10:13;101323.84;;;15.62;100.00
76632;BME280;65526;48.578;-4.520;2023-06-14T06:12:41;101164.78;;;14.56;100.00
76632;BME280;65526;48.578;-4.520;2023-06-14T06:15:07;100808.69;;;12.59;100.00
76632;BME280;65526;48.578;-4.520;2023-06-14T06:17:39;100751.59;;;12.18;100.00
76632;BME280;65526;48.578;-4.520;2023-06-14T06:20:06;101114.75;;;14.35;100.00
76632;BME280;65526;48.578;-4.520;2023-06-14T06:22:34;101384.53;;;15.74;100.00
76632;BME280;65526;48.578;-4.520;2023-06-14T06:25:00;101112.72;;;14.16;100.00
76632;BME280;65526;48.578;-4.520;2023-06-14T06:27:27;100987.59;;;13.56;100.00
76632;BME280;65526;48.578;-4.520;2023-06-14T06:29:53;101035.53;;;13.58;100.00
76632;BME280;65526;48.578;-4.520;2023-06-14T06:32:20;101349.28;;;15.73;100.00
76632;BME280;65526;48.578;-4.520;2023-06-14T06:34:46;101316.66;;;15.84;100.00
76632;BME280;65526;48.578;-4.520;2023-06-14T06:37:13;100722.81;;;11.83;100.00
76632;BME280;65526;48.578;-4.520;2023-06-14T06:39:40;101363.25;;;15.92;100.00
76632;BME280;65526;48.578;-4.520;2023-06-14T06:42:06;101394.91;;;15.93;100.00
76632;BME280;65526;48.578;-4.520;2023-06-14T06:44:36;101206.09;;;14.82;100.00
76632;BME280;65526;48.578;-4.520;2023-06-14T06:47:03;101388.50;;;15.92;100.00
76632;BME280;65526;48.578;-4.520;2023-06-14T06:49:29;100854.69;;;13.00;100.00
76632;BME280;65526;48.578;-4.520;2023-06-14T06:52:04;100799.72;;;12.66;100.00
76632;BME280;65526;48.578;-4.520;2023-06-14T06:54:31;101166.56;;;14.64;100.00
76632;BME280;65526;48.578;-4.520;2023-06-14T06:56:58;100914.22;;;13.04;100.00
76632;BME280;65526;48.578;-4.520;2023-06-14T06:59:25;101370.19;;;15.98;100.00
76632;BME280;65526;48.578;-4.520;2023-06-14T07:01:51;100745.84;;;12.11;100.00
76632;BME280;65526;48.578;-4.520;2023-06-14T07:04:17;101366.28;;;16.03;100.00
76632;BME280;65526;48.578;-4.520;2023-06-14T07:06:46;100730.72;;;11.97;100.00
76632;BME280;65526;48.578;-4.520;2023-06-14T07:09:13;100686.88;;;12.09;100.00
76632;BME280;65526;48.578;-4.520;2023-06-14T07:11:43;101319.97;;;16.12;100.00
76632;BME280;65526;48.578;-4.520;2023-06-14T07:14:10;101105.16;;;14.52;100.00
76632;BME280;65526;48.578;-4.520;2023-06-14T07:16:37;101349.69;;;16.17;100.00
76632;BME280;65526;48.578;-4.520;2023-06-14T07:19:04;100745.16;;;12.49;100.00
76632;BME280;65526;48.578;-4.520;2023-06-14T07:21:30;100874.84;;;13.25;100.00
76632;BME280;65526;48.578;-4.520;2023-06-14T07:23:57;100802.88;;;12.49;100.00
76632;BME280;65526;48.578;-4.520;2023-06-14T07:26:23;100836.22;;;12.92;100.00
76632;BME280;65526;48.578;-4.520;2023-06-14T07:28:49;101077.66;;;14.19;100.00
76632;BME280;65526;48.578;-4.520;2023-06-14T07:31:16;100638.09;;;11.68;100.00
76632;BME280;65526;48.578;-4.520;2023-06-14T07:33:44;101356.06;;;16.14;100.00
76632;BME280;65526;48.578;-4.520;2023-06-14T07:36:11;100950.44;;;13.52;100.00
76632;BME280;65526;48.578;-4.520;2023-06-14T07:38:37;100943.03;;;13.78;100.00
76632;BME280;65526;48.578;-4.520;2023-06-14T07:41:04;101415.78;;;16.37;100.00
76632;BME280;65526;48.578;-4.520;2023-06-14T07:43:30;100877.22;;;13.42;100.00
76632;BME280;65526;48.578;-4.520;2023-06-14T07:45:56;100937.09;;;13.80;100.00
76632;BME280;65526;48.578;-4.520;2023-06-14T07:48:23;101413.44;;;16.39;100.00
76632;BME280;65526;48.578;-4.520;2023-06-14T07:50:50;101207.22;;;15.35;100.00
76632;BME280;65526;48.578;-4.520;2023-06-14T07:53:16;101058.50;;;14.56;100.00
76632;BME280;65526;48.578;-4.520;2023-06-14T07:55:42;100926.13;;;13.71;100.00
76632;BME280;65526;48.578;-4.520;2023-06-14T07:58:09;101378.41;;;16.52;100.00
76632;BME280;65526;48.578;-4.520;2023-06-14T08:00:36;101420.03;;;16.50;100.00
76632;BME280;65526;48.578;-4.520;2023-06-14T08:03:03;101359.94;;;16.51;100.00
76632;BME280;65526;48.578;-4.520;2023-06-14T08:05:30;101033.19;;;13.95;100.00
76632;BME280;65526;48.578;-4.520;2023-06-14T08:07:56;101364.84;;;16.58;100.00
76632;BME280;65526;48.578;-4.520;2023-06-14T08:10:23;101034.78;;;14.50;100.00
76632;BME280;65526;48.578;-4.520;2023-06-14T08:12:49;101386.66;;;16.64;100.00
76632;BME280;65526;48.578;-4.520;2023-06-14T08:15:18;101415.13;;;16.63;100.00
76632;BME280;65526;48.578;-4.520;2023-06-14T08:17:45;101421.50;;;16.63;100.00
76632;BME280;65526;48.578;-4.520;2023-06-14T08:20:12;101434.44;;;16.68;100.00
76632;BME280;65526;48.578;-4.520;2023-06-14T08:22:39;101373.78;;;16.63;100.00
76632;BME280;65526;48.578;-4.520;2023-06-14T08:25:08;101405.47;;;16.64;100.00
76632;BME280;65526;48.578;-4.520;2023-06-14T08:27:35;101376.31;;;16.69;100.00
76632;BME280;65526;48.578;-4.520;2023-06-14T08:30:02;100985.72;;;14.14;100.00
76632;BME280;65526;48.578;-4.520;2023-06-14T08:32:29;101428.50;;;16.73;100.00
76632;BME280;65526;48.578;-4.520;2023-06-14T08:34:55;101397.31;;;16.78;100.00
76632;BME280;65526;48.578;-4.520;2023-06-14T08:37:22;101168.59;;;15.25;100.00
76632;BME280;65526;48.578;-4.520;2023-06-14T08:39:48;100791.59;;;13.12;100.00
76632;BME280;65526;48.578;-4.520;2023-06-14T08:42:15;100705.38;;;12.17;100.00
76632;BME280;65526;48.578;-4.520;2023-06-14T08:44:44;101347.84;;;16.02;100.00
76632;BME280;65526;48.578;-4.520;2023-06-14T08:47:11;100767.03;;;12.82;100.00
76632;BME280;65526;48.578;-4.520;2023-06-14T08:49:40;100713.97;;;12.44;100.00
76632;BME280;65526;48.578;-4.520;2023-06-14T08:52:11;101127.38;;;14.83;100.00
76632;BME280;65526;48.578;-4.520;2023-06-14T08:54:41;100816.38;;;13.13;100.00
76632;BME280;65526;48.578;-4.520;2023-06-14T08:57:14;101091.38;;;15.01;100.00
76632;BME280;65526;48.578;-4.520;2023-06-14T08:59:46;101401.47;;;16.88;100.00
76632;BME280;65526;48.578;-4.520;2023-06-14T09:02:12;100833.72;;;13.06;100.00
76632;BME280;65526;48.578;-4.520;2023-06-14T09:04:40;100959.72;;;13.94;100.00
76632;BME280;65526;48.578;-4.520;2023-06-14T09:07:07;101436.81;;;16.89;100.00
76632;BME280;65526;48.578;-4.520;2023-06-14T09:09:39;101459.31;;;16.92;100.00
76632;BME280;65526;48.578;-4.520;2023-06-14T09:12:08;101408.78;;;16.92;100.00
76632;BME280;65526;48.578;-4.520;2023-06-14T09:14:36;101352.09;;;16.15;100.00
76632;BME280;65526;48.578;-4.520;2023-06-14T09:17:05;101422.38;;;16.90;100.00
76632;BME280;65526;48.578;-4.520;2023-06-14T09:19:33;101033.66;;;14.35;100.00
76632;BME280;65526;48.578;-4.520;2023-06-14T09:21:59;101414.47;;;16.96;100.00
76632;BME280;65526;48.578;-4.520;2023-06-14T09:24:26;100699.63;;;12.61;100.00
76632;BME280;65526;48.578;-4.520;2023-06-14T09:26:53;101404.03;;;16.96;100.00
76632;BME280;65526;48.578;-4.520;2023-06-14T09:29:19;101426.38;;;16.89;100.00
76632;BME280;65526;48.578;-4.520;2023-06-14T09:31:46;100998.44;;;14.11;100.00
76632;BME280;65526;48.578;-4.520;2023-06-14T09:34:13;100844.66;;;12.96;100.00
76632;BME280;65526;48.578;-4.520;2023-06-14T09:36:40;101446.84;;;16.90;100.00
76632;BME280;65526;48.578;-4.520;2023-06-14T09:39:08;100931.75;;;13.56;100.00
76632;BME280;65526;48.578;-4.520;2023-06-14T09:41:39;101417.88;;;16.86;100.00
76632;BME280;65526;48.578;-4.520;2023-06-14T09:44:07;101203.38;;;15.62;100.00
76632;BME280;65526;48.578;-4.520;2023-06-14T09:46:36;100830.09;;;13.22;100.00
76632;BME280;65526;48.578;-4.520;2023-06-14T09:49:04;100801.78;;;12.69;100.00
76632;BME280;65526;48.578;-4.520;2023-06-14T09:51:31;101201.97;;;15.53;100.00
76632;BME280;65526;48.578;-4.520;2023-06-14T09:54:02;101448.53;;;16.94;100.00
76632;BME280;65526;48.578;-4.520;2023-06-14T09:56:35;101483.47;;;16.97;100.00
76632;BME280;65526;48.578;-4.520;2023-06-14T09:59:05;101302.84;;;15.95;100.00
76632;BME280;65526;48.578;-4.520;2023-06-14T10:01:34;100899.06;;;13.75;100.00
76632;BME280;65526;48.578;-4.520;2023-06-14T10:04:04;101445.03;;;17.01;100.00
76632;BME280;65526;48.578;-4.520;2023-06-14T10:06:31;100988.25;;;14.22;100.00
76632;BME280;65526;48.578;-4.520;2023-06-14T10:08:59;101461.09;;;17.04;100.00
76632;BME280;65526;48.578;-4.520;2023-06-14T10:11:27;101160.16;;;15.44;100.00
76632;BME280;65526;48.578;-4.520;2023-06-14T10:13:55;101461.22;;;17.11;100.00
76632;BME280;65526;48.578;-4.520;2023-06-14T10:19:07;100876.97;;;13.13;100.00
76632;BME280;65526;48.578;-4.520;2023-06-14T10:24:08;101438.28;;;17.06;100.00
76632;BME280;65526;48.578;-4.520;2023-06-14T10:26:54;101495.63;;;17.04;100.00
76632;BME280;65526;48.578;-4.520;2023-06-14T10:29:20;101110.22;;;14.85;100.00
76632;BME280;65526;48.578;-4.520;2023-06-14T10:31:49;101216.06;;;15.79;100.00
76632;BME280;65526;48.578;-4.520;2023-06-14T10:34:29;101003.72;;;14.55;100.00
76632;BME280;65526;48.578;-4.520;2023-06-14T10:37:07;100828.22;;;13.26;100.00
76632;BME280;65526;48.578;-4.520;2023-06-14T10:39:41;101008.38;;;14.47;100.00
76632;BME280;65526;48.578;-4.520;2023-06-14T10:42:08;100823.31;;;13.38;100.00
76632;BME280;65526;48.578;-4.520;2023-06-14T10:47:07;100938.91;;;14.11;100.00
76632;BME280;65526;48.578;-4.520;2023-06-14T10:49:46;101203.97;;;15.75;100.00
76632;BME280;65526;48.578;-4.520;2023-06-14T10:52:15;101011.38;;;14.58;100.00
76632;BME280;65526;48.578;-4.520;2023-06-14T10:55:06;101439.56;;;17.38;100.00
76632;BME280;65526;48.578;-4.520;2023-06-14T10:57:36;100799.94;;;13.46;100.00
76632;BME280;65526;48.578;-4.520;2023-06-14T11:00:04;100922.16;;;13.72;100.00
76632;BME280;65526;48.578;-4.520;2023-06-14T11:02:46;101454.03;;;17.36;100.00
76632;BME280;65526;48.578;-4.520;2023-06-14T11:05:24;101021.16;;;14.48;100.00
76632;BME280;65526;48.578;-4.520;2023-06-14T11:08:15;101426.53;;;17.53;100.00
76632;BME280;65526;48.578;-4.520;2023-06-14T11:10:44;100849.16;;;13.74;100.00
76632;BME280;65526;48.578;-4.520;2023-06-14T11:13:16;101211.38;;;15.87;100.00
76632;BME280;65526;48.578;-4.520;2023-06-14T11:15:47;101456.94;;;17.43;100.00
76632;BME280;65526;48.578;-4.520;2023-06-14T11:18:15;101060.44;;;14.94;100.00
76632;BME280;65526;48.578;-4.520;2023-06-14T11:20:42;101469.28;;;17.39;100.00
76632;BME280;65526;48.578;-4.520;2023-06-14T11:23:12;101315.03;;;16.51;100.00
76632;BME280;65526;48.578;-4.520;2023-06-14T11:25:38;101440.09;;;17.47;100.00
76632;BME280;65526;48.578;-4.520;2023-06-14T11:28:04;101463.84;;;17.50;100.00
76632;BME280;65526;48.578;-4.520;2023-06-14T11:30:31;101436.50;;;17.47;100.00
76632;BME280;65526;48.578;-4.520;2023-06-14T11:32:58;101326.91;;;16.41;100.00
76632;BME280;65526;48.578;-4.520;2023-06-14T11:35:25;101081.75;;;15.21;100.00
76632;BME280;65526;48.578;-4.520;2023-06-14T11:37:56;100784.44;;;13.30;100.00
76632;BME280;65526;48.578;-4.520;2023-06-14T11:40:26;101425.34;;;17.54;100.00
76632;BME280;65526;48.578;-4.520;2023-06-14T11:43:01;101438.25;;;17.58;100.00
76632;BME280;65526;48.578;-4.520;2023-06-14T11:45:28;101423.47;;;17.61;100.00
76632;BME280;65526;48.578;-4.520;2023-06-14T11:47:55;101333.72;;;16.89;100.00
76632;BME280;65526;48.578;-4.520;2023-06-14T11:50:26;100770.16;;;13.54;99.84
76632;BME280;65526;48.578;-4.520;2023-06-14T11:52:57;100999.50;;;15.06;99.60
76632;BME280;65526;48.578;-4.520;2023-06-14T11:55:24;101414.66;;;17.63;100.00
76632;BME280;65526;48.578;-4.520;2023-06-14T11:57:51;101048.50;;;15.20;100.00
76632;BME280;65526;48.578;-4.520;2023-06-14T12:00:18;101074.03;;;15.60;99.67
76632;BME280;65526;48.578;-4.520;2023-06-14T12:02:56;100571.22;;;12.54;98.87
76632;BME280;65526;48.578;-4.520;2023-06-14T12:05:24;101150.59;;;16.17;99.77
76632;BME280;65526;48.578;-4.520;2023-06-14T12:07:58;101451.63;;;17.95;99.02
76632;BME280;65526;48.578;-4.520;2023-06-14T12:10:26;101221.16;;;16.45;98.89
76632;BME280;65526;48.578;-4.520;2023-06-14T12:12:57;100930.56;;;14.98;98.62
76632;BME280;65526;48.578;-4.520;2023-06-14T12:15:27;101063.53;;;15.54;98.52
76632;BME280;65526;48.578;-4.520;2023-06-14T12:17:54;100898.22;;;14.75;97.73
76632;BME280;65526;48.578;-4.520;2023-06-14T12:20:21;101423.03;;;17.89;98.28
76632;BME280;65526;48.578;-4.520;2023-06-14T12:22:52;101420.06;;;18.08;97.80
76632;BME280;65526;48.578;-4.520;2023-06-14T12:25:33;101433.41;;;17.85;97.44
76632;BME280;65526;48.578;-4.520;2023-06-14T12:28:05;101131.34;;;16.15;97.22
76632;BME280;65526;48.578;-4.520;2023-06-14T12:30:32;101041.25;;;15.64;97.84
76632;BME280;65526;48.578;-4.520;2023-06-14T12:32:59;101466.78;;;18.16;97.69
76632;BME280;65526;48.578;-4.520;2023-06-14T12:35:26;100919.34;;;14.72;96.55
76632;BME280;65526;48.578;-4.520;2023-06-14T12:37:53;101055.28;;;15.64;96.12
76632;BME280;65526;48.578;-4.520;2023-06-14T12:40:19;101431.31;;;18.08;96.70
76632;BME280;65526;48.578;-4.520;2023-06-14T12:42:46;101077.06;;;15.52;96.47
76632;BME280;65526;48.578;-4.520;2023-06-14T12:45:15;101271.44;;;16.84;96.58